Disclaimer

Please do not use the information listed here in-flight or in-navigation, as they are not provided to us by the airports but are provided by volunteers, so they might be outdated.

Search


Regions


Airport information page

Radio informations:
Tower (TWR) - 118.3 MHz
TCA - 119.025 MHz
DEP - 120.4 MHz
Automatic Terminal Information Service (ATIS) - 127.45 MHz
Approach (APP) - 121.2 MHz

Airport informations:
Latitude: 34° 12' 51.00" N
Longitude: 134° 00' 56.00" E
Elevation: 607 feet - 185 meters
Operating hours: Remarks
Operating agency: Civil government, landing fees and diplomatic clearance may be required
Timezone: UTC+9
Fuel: Jet A1+, Jet A1 with icing inhibitor.

100/130 MIL Spec, low lead, aviation gasoline (BLUE)

Runway information:
08/26 - 8200 x 200 feet< - >2499 x 61 meters

Recent METARs:
RJOT 151100Z 13003KT 090V180 9999 FEW030 09/05 Q1023
RJOT 151100Z 13003KT 090V180 9999 FEW030 09/05 Q1023
RJOT 151200Z 14005KT 090V170 9999 FEW030 SCT/// 09/05 Q1023

Airport on the map: